Randolph, Ohio
Current Conditions -  °F | °C
As of 12:41 AM on Thursday 18 Dec 2014 (Local Time) from KAKR Reporting Station
Overcast Overcast  
Wind Chill: 19°   Ceiling: 2800
Heat Index: 29°   Visibility: 10mi
Dew Point: 20°   Wind: 13mph
Humidity: 69%   Direction: 290°WNW
Pressure: 30.15"   Gusts: NA
Location:  41.03°N, 81.25°W
Report Text: KAKR 180541Z AUTO 29011KT 10SM OVC028 M02/M07 A3015 RMK AO2 T10171067 $
Loading
Personal Weather Stations






























Interactive Weather Map New forecast layout! Learn more

10-Day Weather Forecast

Advertisements
Track Severe Weather on mobile